sensor_id;sensor_type;location;lat;lon;timestamp;temperature;humidity
12811;DHT22;6470;47.654;7.896;2023-03-23T00:02:31;10.50;99.90
12811;DHT22;6470;47.654;7.896;2023-03-23T00:05:09;10.10;99.90
12811;DHT22;6470;47.654;7.896;2023-03-23T00:07:35;10.40;99.90
12811;DHT22;6470;47.654;7.896;2023-03-23T00:10:01;10.40;99.90
12811;DHT22;6470;47.654;7.896;2023-03-23T00:12:30;10.00;99.90
12811;DHT22;6470;47.654;7.896;2023-03-23T00:15:06;9.50;99.90
12811;DHT22;6470;47.654;7.896;2023-03-23T00:17:34;9.80;99.90
12811;DHT22;6470;47.654;7.896;2023-03-23T00:20:01;10.00;99.90
12811;DHT22;6470;47.654;7.896;2023-03-23T00:24:55;9.60;99.90
12811;DHT22;6470;47.654;7.896;2023-03-23T00:27:22;9.80;99.90
12811;DHT22;6470;47.654;7.896;2023-03-23T00:29:50;9.90;99.90
12811;DHT22;6470;47.654;7.896;2023-03-23T00:32:20;10.00;99.90
12811;DHT22;6470;47.654;7.896;2023-03-23T00:34:46;9.20;99.90
12811;DHT22;6470;47.654;7.896;2023-03-23T00:37:14;10.00;99.90
12811;DHT22;6470;47.654;7.896;2023-03-23T00:39:42;9.40;99.90
12811;DHT22;6470;47.654;7.896;2023-03-23T00:42:10;9.50;99.90
12811;DHT22;6470;47.654;7.896;2023-03-23T00:47:05;10.10;99.90
12811;DHT22;6470;47.654;7.896;2023-03-23T00:49:31;9.70;99.90
12811;DHT22;6470;47.654;7.896;2023-03-23T00:54:27;10.30;99.90
12811;DHT22;6470;47.654;7.896;2023-03-23T00:56:54;10.30;99.90
12811;DHT22;6470;47.654;7.896;2023-03-23T01:01:46;10.70;99.90
12811;DHT22;6470;47.654;7.896;2023-03-23T01:04:12;10.40;99.90
12811;DHT22;6470;47.654;7.896;2023-03-23T01:06:43;9.70;99.90
12811;DHT22;6470;47.654;7.896;2023-03-23T01:09:12;10.30;99.90
12811;DHT22;6470;47.654;7.896;2023-03-23T01:11:42;10.60;99.90
12811;DHT22;6470;47.654;7.896;2023-03-23T01:14:09;9.90;99.90
12811;DHT22;6470;47.654;7.896;2023-03-23T01:19:02;9.90;99.90
12811;DHT22;6470;47.654;7.896;2023-03-23T01:21:28;9.70;99.90
12811;DHT22;6470;47.654;7.896;2023-03-23T01:23:53;9.90;99.90
12811;DHT22;6470;47.654;7.896;2023-03-23T01:26:22;9.70;99.90
12811;DHT22;6470;47.654;7.896;2023-03-23T01:31:16;10.20;99.90
12811;DHT22;6470;47.654;7.896;2023-03-23T01:33:43;9.90;99.90
12811;DHT22;6470;47.654;7.896;2023-03-23T01:36:15;10.00;99.90
12811;DHT22;6470;47.654;7.896;2023-03-23T01:38:42;10.30;99.90
12811;DHT22;6470;47.654;7.896;2023-03-23T01:43:34;9.90;99.90
12811;DHT22;6470;47.654;7.896;2023-03-23T01:46:00;10.30;99.90
12811;DHT22;6470;47.654;7.896;2023-03-23T01:48:29;9.60;99.90
12811;DHT22;6470;47.654;7.896;2023-03-23T01:51:14;9.90;99.90
12811;DHT22;6470;47.654;7.896;2023-03-23T01:54:11;9.70;99.90
12811;DHT22;6470;47.654;7.896;2023-03-23T01:56:47;9.90;99.90
12811;DHT22;6470;47.654;7.896;2023-03-23T01:59:14;10.20;99.90
12811;DHT22;6470;47.654;7.896;2023-03-23T02:01:41;10.20;99.90
12811;DHT22;6470;47.654;7.896;2023-03-23T02:04:14;10.10;99.90
12811;DHT22;6470;47.654;7.896;2023-03-23T02:06:41;10.10;99.90
12811;DHT22;6470;47.654;7.896;2023-03-23T02:09:08;10.30;99.90
12811;DHT22;6470;47.654;7.896;2023-03-23T02:14:01;10.10;99.90
12811;DHT22;6470;47.654;7.896;2023-03-23T02:16:44;9.60;99.90
12811;DHT22;6470;47.654;7.896;2023-03-23T02:27:28;10.30;99.90
12811;DHT22;6470;47.654;7.896;2023-03-23T02:36:10;10.20;99.90
12811;DHT22;6470;47.654;7.896;2023-03-23T02:41:27;10.40;99.90
12811;DHT22;6470;47.654;7.896;2023-03-23T02:43:55;10.30;99.90
12811;DHT22;6470;47.654;7.896;2023-03-23T02:46:22;9.70;99.90
12811;DHT22;6470;47.654;7.896;2023-03-23T02:48:50;9.60;99.90
12811;DHT22;6470;47.654;7.896;2023-03-23T02:51:19;9.80;99.90
12811;DHT22;6470;47.654;7.896;2023-03-23T02:53:46;10.60;99.90
12811;DHT22;6470;47.654;7.896;2023-03-23T02:56:13;10.00;99.90
12811;DHT22;6470;47.654;7.896;2023-03-23T02:58:40;10.20;99.90
12811;DHT22;6470;47.654;7.896;2023-03-23T03:03:50;10.10;99.90
12811;DHT22;6470;47.654;7.896;2023-03-23T03:06:39;10.10;99.90
12811;DHT22;6470;47.654;7.896;2023-03-23T03:11:53;10.10;99.90
12811;DHT22;6470;47.654;7.896;2023-03-23T03:14:29;9.90;99.90
12811;DHT22;6470;47.654;7.896;2023-03-23T03:17:04;9.80;99.90
12811;DHT22;6470;47.654;7.896;2023-03-23T03:19:43;9.60;99.90
12811;DHT22;6470;47.654;7.896;2023-03-23T03:22:12;9.70;99.90
12811;DHT22;6470;47.654;7.896;2023-03-23T03:30:30;10.20;99.90
12811;DHT22;6470;47.654;7.896;2023-03-23T03:32:58;10.30;99.90
12811;DHT22;6470;47.654;7.896;2023-03-23T03:37:52;10.20;99.90
12811;DHT22;6470;47.654;7.896;2023-03-23T03:40:20;10.50;99.90
12811;DHT22;6470;47.654;7.896;2023-03-23T03:42:46;9.80;99.90
12811;DHT22;6470;47.654;7.896;2023-03-23T03:45:15;9.60;99.90
12811;DHT22;6470;47.654;7.896;2023-03-23T03:47:41;10.50;99.90
12811;DHT22;6470;47.654;7.896;2023-03-23T03:50:08;9.80;99.90
12811;DHT22;6470;47.654;7.896;2023-03-23T03:52:35;9.90;99.90
12811;DHT22;6470;47.654;7.896;2023-03-23T04:00:49;9.50;99.90
12811;DHT22;6470;47.654;7.896;2023-03-23T04:03:16;10.30;99.90
12811;DHT22;6470;47.654;7.896;2023-03-23T04:05:42;10.20;99.90
12811;DHT22;6470;47.654;7.896;2023-03-23T04:08:10;9.60;99.90
12811;DHT22;6470;47.654;7.896;2023-03-23T04:10:36;9.60;99.90
12811;DHT22;6470;47.654;7.896;2023-03-23T04:13:03;10.50;99.90
12811;DHT22;6470;47.654;7.896;2023-03-23T04:15:30;10.10;99.90
12811;DHT22;6470;47.654;7.896;2023-03-23T04:17:56;10.30;99.90
12811;DHT22;6470;47.654;7.896;2023-03-23T04:20:23;9.50;99.90
12811;DHT22;6470;47.654;7.896;2023-03-23T04:22:49;10.70;99.90
12811;DHT22;6470;47.654;7.896;2023-03-23T04:25:17;10.20;99.90
12811;DHT22;6470;47.654;7.896;2023-03-23T04:27:43;10.10;99.90
12811;DHT22;6470;47.654;7.896;2023-03-23T04:30:13;9.90;99.90
12811;DHT22;6470;47.654;7.896;2023-03-23T04:32:39;9.80;99.90
12811;DHT22;6470;47.654;7.896;2023-03-23T04:35:12;10.10;99.90
12811;DHT22;6470;47.654;7.896;2023-03-23T04:37:39;10.40;99.90
12811;DHT22;6470;47.654;7.896;2023-03-23T04:40:07;10.30;99.90
12811;DHT22;6470;47.654;7.896;2023-03-23T04:42:36;10.00;99.90
12811;DHT22;6470;47.654;7.896;2023-03-23T04:45:03;9.90;99.90
12811;DHT22;6470;47.654;7.896;2023-03-23T04:47:33;9.70;99.90
12811;DHT22;6470;47.654;7.896;2023-03-23T04:50:00;12.10;99.90
12811;DHT22;6470;47.654;7.896;2023-03-23T04:52:27;11.90;99.90
12811;DHT22;6470;47.654;7.896;2023-03-23T04:54:56;9.80;99.90
12811;DHT22;6470;47.654;7.896;2023-03-23T04:57:23;12.40;99.90
12811;DHT22;6470;47.654;7.896;2023-03-23T04:59:48;12.00;99.90
12811;DHT22;6470;47.654;7.896;2023-03-23T05:02:14;11.80;99.90
12811;DHT22;6470;47.654;7.896;2023-03-23T05:04:42;11.00;99.90
12811;DHT22;6470;47.654;7.896;2023-03-23T05:07:08;11.00;99.90
12811;DHT22;6470;47.654;7.896;2023-03-23T05:09:35;12.20;99.90
12811;DHT22;6470;47.654;7.896;2023-03-23T05:12:09;10.80;99.90
12811;DHT22;6470;47.654;7.896;2023-03-23T05:17:02;12.00;99.90
12811;DHT22;6470;47.654;7.896;2023-03-23T05:19:28;10.80;99.90
12811;DHT22;6470;47.654;7.896;2023-03-23T05:21:56;12.50;99.90
12811;DHT22;6470;47.654;7.896;2023-03-23T05:24:30;10.80;99.90
12811;DHT22;6470;47.654;7.896;2023-03-23T05:26:58;10.90;99.90
12811;DHT22;6470;47.654;7.896;2023-03-23T05:29:24;12.20;99.90
12811;DHT22;6470;47.654;7.896;2023-03-23T05:31:51;12.40;99.90
12811;DHT22;6470;47.654;7.896;2023-03-23T05:34:18;12.00;99.90
12811;DHT22;6470;47.654;7.896;2023-03-23T05:36:45;12.30;99.90
12811;DHT22;6470;47.654;7.896;2023-03-23T05:39:11;12.30;99.90
12811;DHT22;6470;47.654;7.896;2023-03-23T05:41:38;11.90;99.90
12811;DHT22;6470;47.654;7.896;2023-03-23T05:44:04;11.60;99.90
12811;DHT22;6470;47.654;7.896;2023-03-23T05:46:30;11.10;99.90
12811;DHT22;6470;47.654;7.896;2023-03-23T05:48:56;11.90;99.90
12811;DHT22;6470;47.654;7.896;2023-03-23T05:51:21;11.00;99.90
12811;DHT22;6470;47.654;7.896;2023-03-23T05:56:14;11.10;99.90
12811;DHT22;6470;47.654;7.896;2023-03-23T05:58:40;12.30;99.90
12811;DHT22;6470;47.654;7.896;2023-03-23T06:01:07;12.30;99.90
12811;DHT22;6470;47.654;7.896;2023-03-23T06:03:33;10.20;99.90
12811;DHT22;6470;47.654;7.896;2023-03-23T06:10:53;11.30;99.90
12811;DHT22;6470;47.654;7.896;2023-03-23T06:13:19;12.00;99.90
12811;DHT22;6470;47.654;7.896;2023-03-23T06:15:45;12.50;99.90
12811;DHT22;6470;47.654;7.896;2023-03-23T06:18:11;11.60;99.90
12811;DHT22;6470;47.654;7.896;2023-03-23T06:23:04;12.20;99.90
12811;DHT22;6470;47.654;7.896;2023-03-23T06:25:31;12.40;99.90
12811;DHT22;6470;47.654;7.896;2023-03-23T06:27:57;11.80;99.90
12811;DHT22;6470;47.654;7.896;2023-03-23T06:30:23;11.70;99.90
12811;DHT22;6470;47.654;7.896;2023-03-23T06:32:49;14.90;99.90
12811;DHT22;6470;47.654;7.896;2023-03-23T06:37:42;15.60;99.90
12811;DHT22;6470;47.654;7.896;2023-03-23T06:40:08;14.50;99.90
12811;DHT22;6470;47.654;7.896;2023-03-23T06:42:35;12.30;99.90
12811;DHT22;6470;47.654;7.896;2023-03-23T06:45:03;14.70;99.90
12811;DHT22;6470;47.654;7.896;2023-03-23T06:47:29;15.20;99.90
12811;DHT22;6470;47.654;7.896;2023-03-23T06:49:58;12.20;99.90
12811;DHT22;6470;47.654;7.896;2023-03-23T06:52:25;12.20;99.90
12811;DHT22;6470;47.654;7.896;2023-03-23T06:54:51;14.30;99.90
12811;DHT22;6470;47.654;7.896;2023-03-23T06:57:18;12.00;99.90
12811;DHT22;6470;47.654;7.896;2023-03-23T06:59:44;12.00;99.90
12811;DHT22;6470;47.654;7.896;2023-03-23T07:02:11;12.20;99.90
12811;DHT22;6470;47.654;7.896;2023-03-23T07:04:38;15.40;99.90
12811;DHT22;6470;47.654;7.896;2023-03-23T07:07:05;15.10;99.90
12811;DHT22;6470;47.654;7.896;2023-03-23T07:09:31;15.20;99.90
12811;DHT22;6470;47.654;7.896;2023-03-23T07:11:57;14.90;99.90
12811;DHT22;6470;47.654;7.896;2023-03-23T07:14:23;15.00;99.90
12811;DHT22;6470;47.654;7.896;2023-03-23T07:16:49;15.10;99.90
12811;DHT22;6470;47.654;7.896;2023-03-23T07:19:15;14.50;99.90
12811;DHT22;6470;47.654;7.896;2023-03-23T07:21:41;12.40;99.90
12811;DHT22;6470;47.654;7.896;2023-03-23T07:24:12;14.50;99.90
12811;DHT22;6470;47.654;7.896;2023-03-23T07:26:42;14.70;99.90
12811;DHT22;6470;47.654;7.896;2023-03-23T07:29:09;12.60;99.90
12811;DHT22;6470;47.654;7.896;2023-03-23T07:31:35;15.80;99.90
12811;DHT22;6470;47.654;7.896;2023-03-23T07:34:01;15.20;99.90
12811;DHT22;6470;47.654;7.896;2023-03-23T07:36:28;15.20;99.90
12811;DHT22;6470;47.654;7.896;2023-03-23T07:38:54;15.10;99.90
12811;DHT22;6470;47.654;7.896;2023-03-23T07:41:20;15.00;99.90
12811;DHT22;6470;47.654;7.896;2023-03-23T07:43:46;12.60;99.90
12811;DHT22;6470;47.654;7.896;2023-03-23T07:46:12;15.10;99.90
12811;DHT22;6470;47.654;7.896;2023-03-23T07:48:38;15.00;99.90
12811;DHT22;6470;47.654;7.896;2023-03-23T07:51:05;13.40;99.90
12811;DHT22;6470;47.654;7.896;2023-03-23T07:53:31;14.90;99.90
12811;DHT22;6470;47.654;7.896;2023-03-23T07:55:57;14.90;99.90
12811;DHT22;6470;47.654;7.896;2023-03-23T07:58:23;15.10;99.90
12811;DHT22;6470;47.654;7.896;2023-03-23T08:00:49;14.10;99.90
12811;DHT22;6470;47.654;7.896;2023-03-23T08:03:16;15.90;99.90
12811;DHT22;6470;47.654;7.896;2023-03-23T08:05:42;16.20;99.90
12811;DHT22;6470;47.654;7.896;2023-03-23T08:08:09;14.40;99.90
12811;DHT22;6470;47.654;7.896;2023-03-23T08:10:35;14.60;99.90
12811;DHT22;6470;47.654;7.896;2023-03-23T08:13:02;15.60;99.90
12811;DHT22;6470;47.654;7.896;2023-03-23T08:15:28;14.70;99.90
12811;DHT22;6470;47.654;7.896;2023-03-23T08:17:55;15.90;99.90
12811;DHT22;6470;47.654;7.896;2023-03-23T08:22:54;15.60;99.90
12811;DHT22;6470;47.654;7.896;2023-03-23T08:25:21;16.60;99.90
12811;DHT22;6470;47.654;7.896;2023-03-23T08:27:47;15.70;99.90
12811;DHT22;6470;47.654;7.896;2023-03-23T08:30:19;15.40;99.90
12811;DHT22;6470;47.654;7.896;2023-03-23T08:32:45;15.30;99.90
12811;DHT22;6470;47.654;7.896;2023-03-23T08:35:12;12.70;99.90
12811;DHT22;6470;47.654;7.896;2023-03-23T08:40:10;15.50;99.90
12811;DHT22;6470;47.654;7.896;2023-03-23T08:42:42;14.90;99.90
12811;DHT22;6470;47.654;7.896;2023-03-23T08:45:10;14.70;99.90
12811;DHT22;6470;47.654;7.896;2023-03-23T08:47:37;15.20;99.90
12811;DHT22;6470;47.654;7.896;2023-03-23T08:50:05;15.60;99.90
12811;DHT22;6470;47.654;7.896;2023-03-23T08:54:57;15.50;99.90
12811;DHT22;6470;47.654;7.896;2023-03-23T08:57:24;15.50;99.90
12811;DHT22;6470;47.654;7.896;2023-03-23T08:59:51;15.70;99.90
12811;DHT22;6470;47.654;7.896;2023-03-23T09:02:20;15.70;99.90
12811;DHT22;6470;47.654;7.896;2023-03-23T09:04:46;16.00;99.90
12811;DHT22;6470;47.654;7.896;2023-03-23T09:07:12;16.10;99.90
12811;DHT22;6470;47.654;7.896;2023-03-23T09:09:40;15.80;99.90
12811;DHT22;6470;47.654;7.896;2023-03-23T09:12:07;16.30;99.90
12811;DHT22;6470;47.654;7.896;2023-03-23T09:14:37;16.10;99.90
12811;DHT22;6470;47.654;7.896;2023-03-23T09:17:04;16.20;99.90
12811;DHT22;6470;47.654;7.896;2023-03-23T09:19:32;15.90;99.90
12811;DHT22;6470;47.654;7.896;2023-03-23T09:24:24;15.80;99.90
12811;DHT22;6470;47.654;7.896;2023-03-23T09:26:50;16.00;99.90
12811;DHT22;6470;47.654;7.896;2023-03-23T09:29:16;16.70;99.90
12811;DHT22;6470;47.654;7.896;2023-03-23T09:31:44;16.60;99.90
12811;DHT22;6470;47.654;7.896;2023-03-23T09:34:12;16.30;99.90
12811;DHT22;6470;47.654;7.896;2023-03-23T09:36:43;16.50;99.90
12811;DHT22;6470;47.654;7.896;2023-03-23T09:39:10;16.50;99.90
12811;DHT22;6470;47.654;7.896;2023-03-23T09:50:27;16.20;99.90
12811;DHT22;6470;47.654;7.896;2023-03-23T09:53:05;17.20;99.90
12811;DHT22;6470;47.654;7.896;2023-03-23T09:55:34;16.50;99.90
12811;DHT22;6470;47.654;7.896;2023-03-23T09:58:36;16.30;99.90
12811;DHT22;6470;47.654;7.896;2023-03-23T10:01:26;16.40;99.90
12811;DHT22;6470;47.654;7.896;2023-03-23T10:03:59;16.20;99.90
12811;DHT22;6470;47.654;7.896;2023-03-23T10:06:27;16.10;99.90
12811;DHT22;6470;47.654;7.896;2023-03-23T10:08:56;16.30;99.90
12811;DHT22;6470;47.654;7.896;2023-03-23T10:14:26;16.70;99.90
12811;DHT22;6470;47.654;7.896;2023-03-23T10:19:47;16.90;99.90
12811;DHT22;6470;47.654;7.896;2023-03-23T10:22:18;16.40;99.90
12811;DHT22;6470;47.654;7.896;2023-03-23T10:24:51;16.50;99.90
12811;DHT22;6470;47.654;7.896;2023-03-23T10:29:55;16.40;99.90
12811;DHT22;6470;47.654;7.896;2023-03-23T10:32:40;16.50;99.90
12811;DHT22;6470;47.654;7.896;2023-03-23T10:35:12;14.10;99.90
12811;DHT22;6470;47.654;7.896;2023-03-23T10:37:44;17.10;99.90
12811;DHT22;6470;47.654;7.896;2023-03-23T10:40:24;16.70;99.90
12811;DHT22;6470;47.654;7.896;2023-03-23T10:42:52;16.50;99.90
12811;DHT22;6470;47.654;7.896;2023-03-23T10:45:27;16.80;99.90
12811;DHT22;6470;47.654;7.896;2023-03-23T10:48:03;16.90;99.90
12811;DHT22;6470;47.654;7.896;2023-03-23T10:50:34;17.20;99.90
12811;DHT22;6470;47.654;7.896;2023-03-23T10:53:01;17.40;99.90
12811;DHT22;6470;47.654;7.896;2023-03-23T10:55:38;17.70;99.90
12811;DHT22;6470;47.654;7.896;2023-03-23T10:58:21;18.60;99.90
12811;DHT22;6470;47.654;7.896;2023-03-23T11:00:47;18.20;99.90
12811;DHT22;6470;47.654;7.896;2023-03-23T11:05:47;15.00;99.90
12811;DHT22;6470;47.654;7.896;2023-03-23T11:08:19;17.60;99.90
12811;DHT22;6470;47.654;7.896;2023-03-23T11:10:58;17.80;99.90
12811;DHT22;6470;47.654;7.896;2023-03-23T11:13:30;18.50;99.90
12811;DHT22;6470;47.654;7.896;2023-03-23T11:15:57;18.70;99.90
12811;DHT22;6470;47.654;7.896;2023-03-23T11:18:34;18.50;99.90
12811;DHT22;6470;47.654;7.896;2023-03-23T11:21:02;18.00;99.90
12811;DHT22;6470;47.654;7.896;2023-03-23T11:23:40;18.20;99.90
12811;DHT22;6470;47.654;7.896;2023-03-23T11:26:30;18.20;99.90
12811;DHT22;6470;47.654;7.896;2023-03-23T11:29:17;17.50;99.90
12811;DHT22;6470;47.654;7.896;2023-03-23T11:34:53;17.90;99.90
12811;DHT22;6470;47.654;7.896;2023-03-23T11:42:46;18.20;99.90
12811;DHT22;6470;47.654;7.896;2023-03-23T11:45:48;17.80;99.90
12811;DHT22;6470;47.654;7.896;2023-03-23T11:48:32;17.70;99.90
12811;DHT22;6470;47.654;7.896;2023-03-23T11:51:13;18.00;99.90
12811;DHT22;6470;47.654;7.896;2023-03-23T11:56:41;18.00;99.90
12811;DHT22;6470;47.654;7.896;2023-03-23T11:59:12;18.00;99.90
12811;DHT22;6470;47.654;7.896;2023-03-23T12:12:39;17.40;99.90
12811;DHT22;6470;47.654;7.896;2023-03-23T12:31:22;17.20;99.90
12811;DHT22;6470;47.654;7.896;2023-03-23T12:33:54;17.30;99.90
12811;DHT22;6470;47.654;7.896;2023-03-23T12:36:38;14.80;99.90
12811;DHT22;6470;47.654;7.896;2023-03-23T12:42:06;17.30;99.90
12811;DHT22;6470;47.654;7.896;2023-03-23T12:44:47;17.70;99.90
12811;DHT22;6470;47.654;7.896;2023-03-23T12:47:37;17.80;99.90
12811;DHT22;6470;47.654;7.896;2023-03-23T12:53:05;17.80;99.90
12811;DHT22;6470;47.654;7.896;2023-03-23T12:56:03;17.40;99.90
12811;DHT22;6470;47.654;7.896;2023-03-23T12:58:35;17.40;99.90
12811;DHT22;6470;47.654;7.896;2023-03-23T13:01:24;17.70;99.90
12811;DHT22;6470;47.654;7.896;2023-03-23T13:04:11;16.80;99.90
12811;DHT22;6470;47.654;7.896;2023-03-23T13:06:44;17.70;99.90
12811;DHT22;6470;47.654;7.896;2023-03-23T13:12:00;17.50;99.90
12811;DHT22;6470;47.654;7.896;2023-03-23T13:28:26;17.30;99.90
12811;DHT22;6470;47.654;7.896;2023-03-23T13:30:59;17.60;99.90
12811;DHT22;6470;47.654;7.896;2023-03-23T13:33:32;17.20;99.90
12811;DHT22;6470;47.654;7.896;2023-03-23T13:36:07;17.60;99.90
12811;DHT22;6470;47.654;7.896;2023-03-23T13:38:35;17.80;99.90
12811;DHT22;6470;47.654;7.896;2023-03-23T13:41:11;17.70;99.90
12811;DHT22;6470;47.654;7.896;2023-03-23T13:43:40;17.10;99.90
12811;DHT22;6470;47.654;7.896;2023-03-23T13:46:24;17.30;99.90
12811;DHT22;6470;47.654;7.896;2023-03-23T13:54:41;17.30;99.90
12811;DHT22;6470;47.654;7.896;2023-03-23T14:00:04;16.80;99.90
12811;DHT22;6470;47.654;7.896;2023-03-23T14:02:41;16.40;99.90
12811;DHT22;6470;47.654;7.896;2023-03-23T14:05:32;16.60;99.90
12811;DHT22;6470;47.654;7.896;2023-03-23T14:13:33;16.70;99.90
12811;DHT22;6470;47.654;7.896;2023-03-23T14:16:04;17.20;99.90
12811;DHT22;6470;47.654;7.896;2023-03-23T14:18:39;13.80;99.90
12811;DHT22;6470;47.654;7.896;2023-03-23T14:21:06;16.60;99.90
12811;DHT22;6470;47.654;7.896;2023-03-23T14:23:39;15.60;99.90
12811;DHT22;6470;47.654;7.896;2023-03-23T14:26:11;16.50;99.90
12811;DHT22;6470;47.654;7.896;2023-03-23T14:28:39;15.80;99.90
12811;DHT22;6470;47.654;7.896;2023-03-23T14:31:24;16.40;99.90
12811;DHT22;6470;47.654;7.896;2023-03-23T14:33:52;16.40;99.90
12811;DHT22;6470;47.654;7.896;2023-03-23T14:36:22;16.40;99.90
12811;DHT22;6470;47.654;7.896;2023-03-23T14:39:02;16.30;99.90
12811;DHT22;6470;47.654;7.896;2023-03-23T14:41:32;16.40;99.90
12811;DHT22;6470;47.654;7.896;2023-03-23T14:44:01;16.40;99.90
12811;DHT22;6470;47.654;7.896;2023-03-23T14:46:27;15.70;99.90
12811;DHT22;6470;47.654;7.896;2023-03-23T14:48:55;16.20;99.90
12811;DHT22;6470;47.654;7.896;2023-03-23T14:51:21;17.00;99.90
12811;DHT22;6470;47.654;7.896;2023-03-23T14:53:47;16.30;99.90
12811;DHT22;6470;47.654;7.896;2023-03-23T14:56:15;17.00;99.90
12811;DHT22;6470;47.654;7.896;2023-03-23T14:58:51;16.70;99.90
12811;DHT22;6470;47.654;7.896;2023-03-23T15:01:23;17.00;99.90
12811;DHT22;6470;47.654;7.896;2023-03-23T15:04:21;16.60;99.90
12811;DHT22;6470;47.654;7.896;2023-03-23T15:06:51;16.50;99.90
12811;DHT22;6470;47.654;7.896;2023-03-23T15:09:22;16.20;99.90
12811;DHT22;6470;47.654;7.896;2023-03-23T15:11:57;17.30;99.90
12811;DHT22;6470;47.654;7.896;2023-03-23T15:14:32;16.60;99.90
12811;DHT22;6470;47.654;7.896;2023-03-23T15:17:01;16.60;99.90
12811;DHT22;6470;47.654;7.896;2023-03-23T15:19:35;16.60;99.90
12811;DHT22;6470;47.654;7.896;2023-03-23T15:22:26;16.50;99.90
12811;DHT22;6470;47.654;7.896;2023-03-23T15:27:41;16.50;99.90
12811;DHT22;6470;47.654;7.896;2023-03-23T15:30:30;17.00;99.90
12811;DHT22;6470;47.654;7.896;2023-03-23T15:33:04;15.70;99.90
12811;DHT22;6470;47.654;7.896;2023-03-23T15:35:49;16.30;99.90
12811;DHT22;6470;47.654;7.896;2023-03-23T15:38:52;16.70;99.90
12811;DHT22;6470;47.654;7.896;2023-03-23T15:41:23;16.90;99.90
12811;DHT22;6470;47.654;7.896;2023-03-23T15:43:51;16.90;99.90
12811;DHT22;6470;47.654;7.896;2023-03-23T15:46:19;16.20;99.90
12811;DHT22;6470;47.654;7.896;2023-03-23T15:48:48;16.70;99.90
12811;DHT22;6470;47.654;7.896;2023-03-23T15:51:16;16.70;99.90
12811;DHT22;6470;47.654;7.896;2023-03-23T15:53:42;17.50;99.90
12811;DHT22;6470;47.654;7.896;2023-03-23T15:56:11;17.20;99.90
12811;DHT22;6470;47.654;7.896;2023-03-23T15:58:37;17.50;99.90
12811;DHT22;6470;47.654;7.896;2023-03-23T16:03:43;15.60;99.90
12811;DHT22;6470;47.654;7.896;2023-03-23T16:06:11;15.90;99.90
12811;DHT22;6470;47.654;7.896;2023-03-23T16:08:37;15.90;99.90
12811;DHT22;6470;47.654;7.896;2023-03-23T16:11:08;16.30;99.90
12811;DHT22;6470;47.654;7.896;2023-03-23T16:13:34;15.30;99.90
12811;DHT22;6470;47.654;7.896;2023-03-23T16:15:59;15.90;99.90
12811;DHT22;6470;47.654;7.896;2023-03-23T16:20:51;16.20;99.90
12811;DHT22;6470;47.654;7.896;2023-03-23T16:23:17;15.80;99.90
12811;DHT22;6470;47.654;7.896;2023-03-23T16:28:11;15.70;99.90
12811;DHT22;6470;47.654;7.896;2023-03-23T16:33:03;15.60;99.90
12811;DHT22;6470;47.654;7.896;2023-03-23T16:35:29;13.20;99.90
12811;DHT22;6470;47.654;7.896;2023-03-23T16:37:56;13.80;99.90
12811;DHT22;6470;47.654;7.896;2023-03-23T16:40:23;15.90;99.90
12811;DHT22;6470;47.654;7.896;2023-03-23T16:42:49;13.20;99.90
12811;DHT22;6470;47.654;7.896;2023-03-23T16:45:16;13.40;99.90
12811;DHT22;6470;47.654;7.896;2023-03-23T16:47:43;13.50;99.90
12811;DHT22;6470;47.654;7.896;2023-03-23T16:50:11;13.00;99.90
12811;DHT22;6470;47.654;7.896;2023-03-23T16:52:46;15.80;99.90
12811;DHT22;6470;47.654;7.896;2023-03-23T16:55:13;16.10;99.90
12811;DHT22;6470;47.654;7.896;2023-03-23T16:57:40;16.30;99.90
12811;DHT22;6470;47.654;7.896;2023-03-23T17:00:08;15.40;99.90
12811;DHT22;6470;47.654;7.896;2023-03-23T17:02:36;15.50;99.90
12811;DHT22;6470;47.654;7.896;2023-03-23T17:05:02;14.70;99.90
12811;DHT22;6470;47.654;7.896;2023-03-23T17:07:28;16.20;99.90
12811;DHT22;6470;47.654;7.896;2023-03-23T17:09:54;15.10;99.90
12811;DHT22;6470;47.654;7.896;2023-03-23T17:12:20;15.10;99.90
12811;DHT22;6470;47.654;7.896;2023-03-23T17:14:46;15.70;99.90
12811;DHT22;6470;47.654;7.896;2023-03-23T17:17:11;15.40;99.90
12811;DHT22;6470;47.654;7.896;2023-03-23T17:19:38;14.90;99.90
12811;DHT22;6470;47.654;7.896;2023-03-23T17:22:04;15.00;99.90
12811;DHT22;6470;47.654;7.896;2023-03-23T17:26:56;16.30;99.90
12811;DHT22;6470;47.654;7.896;2023-03-23T17:29:21;15.20;99.90
12811;DHT22;6470;47.654;7.896;2023-03-23T17:31:48;11.70;99.90
12811;DHT22;6470;47.654;7.896;2023-03-23T17:34:15;14.60;99.90
12811;DHT22;6470;47.654;7.896;2023-03-23T17:36:41;12.20;99.90
12811;DHT22;6470;47.654;7.896;2023-03-23T17:39:07;15.20;99.90
12811;DHT22;6470;47.654;7.896;2023-03-23T17:41:33;16.00;99.90
12811;DHT22;6470;47.654;7.896;2023-03-23T17:46:25;15.60;99.90
12811;DHT22;6470;47.654;7.896;2023-03-23T17:48:51;15.90;99.90
12811;DHT22;6470;47.654;7.896;2023-03-23T17:51:17;11.20;99.90
12811;DHT22;6470;47.654;7.896;2023-03-23T17:53:43;16.10;99.90
12811;DHT22;6470;47.654;7.896;2023-03-23T17:56:09;15.90;99.90
12811;DHT22;6470;47.654;7.896;2023-03-23T17:58:34;15.70;99.90
12811;DHT22;6470;47.654;7.896;2023-03-23T18:01:01;15.20;99.90
12811;DHT22;6470;47.654;7.896;2023-03-23T18:03:27;14.00;99.90
12811;DHT22;6470;47.654;7.896;2023-03-23T18:06:00;14.00;99.90
12811;DHT22;6470;47.654;7.896;2023-03-23T18:10:55;15.60;99.90
12811;DHT22;6470;47.654;7.896;2023-03-23T18:13:22;13.90;99.90
12811;DHT22;6470;47.654;7.896;2023-03-23T18:15:48;15.10;99.90
12811;DHT22;6470;47.654;7.896;2023-03-23T18:18:14;14.90;99.90
12811;DHT22;6470;47.654;7.896;2023-03-23T18:20:39;15.40;99.90
12811;DHT22;6470;47.654;7.896;2023-03-23T18:23:05;13.80;99.90
12811;DHT22;6470;47.654;7.896;2023-03-23T18:25:32;13.80;99.90
12811;DHT22;6470;47.654;7.896;2023-03-23T18:32:53;11.00;99.90
12811;DHT22;6470;47.654;7.896;2023-03-23T18:35:18;15.20;99.90
12811;DHT22;6470;47.654;7.896;2023-03-23T18:37:44;16.10;99.90
12811;DHT22;6470;47.654;7.896;2023-03-23T18:42:40;15.60;99.90
12811;DHT22;6470;47.654;7.896;2023-03-23T18:45:07;10.90;99.90
12811;DHT22;6470;47.654;7.896;2023-03-23T18:47:33;15.40;99.90
12811;DHT22;6470;47.654;7.896;2023-03-23T18:50:02;15.70;99.90
12811;DHT22;6470;47.654;7.896;2023-03-23T18:54:58;15.60;99.90
12811;DHT22;6470;47.654;7.896;2023-03-23T18:57:24;15.40;99.90
12811;DHT22;6470;47.654;7.896;2023-03-23T18:59:50;15.10;99.90
12811;DHT22;6470;47.654;7.896;2023-03-23T19:04:47;11.20;99.90
12811;DHT22;6470;47.654;7.896;2023-03-23T19:07:15;13.60;99.90
12811;DHT22;6470;47.654;7.896;2023-03-23T19:09:41;15.30;99.90
12811;DHT22;6470;47.654;7.896;2023-03-23T19:14:35;15.50;99.90
12811;DHT22;6470;47.654;7.896;2023-03-23T19:17:01;15.50;99.90
12811;DHT22;6470;47.654;7.896;2023-03-23T19:21:53;14.80;99.90
12811;DHT22;6470;47.654;7.896;2023-03-23T19:24:19;14.90;99.90
12811;DHT22;6470;47.654;7.896;2023-03-23T19:26:45;15.40;99.90
12811;DHT22;6470;47.654;7.896;2023-03-23T19:29:15;13.50;99.90
12811;DHT22;6470;47.654;7.896;2023-03-23T19:31:41;10.50;99.90
12811;DHT22;6470;47.654;7.896;2023-03-23T19:34:08;14.90;99.90
12811;DHT22;6470;47.654;7.896;2023-03-23T19:36:34;15.30;99.90